Time;durP1;ratioP1;P1;durP2;ratioP2;P2;SDS_P1;SDS_P2;PMS_P1;PMS_P2;Temp;Humidity;BMP_temperature;BMP_pressure;BME280_temperature;BME280_humidity;BME280_pressure;Samples;Min_cycle;Max_cycle;Signal;HPM_P1;HPM_P2
2022/04/01 00:01:38;;;;;;;15.52;12.38;;;;;;;-0.40;100.00;100053.19;4977980;28;20026;-96
2022/04/01 00:04:03;;;;;;;14.95;12.70;;;;;;;-0.40;100.00;100055.81;4999754;28;20038;-95
2022/04/01 00:06:28;;;;;;;14.10;11.40;;;;;;;-0.40;100.00;100053.19;4997861;28;20041;-95
2022/04/01 00:08:54;;;;;;;15.70;12.00;;;;;;;-0.44;100.00;100053.28;4994657;28;20038;-95
2022/04/01 00:11:19;;;;;;;15.00;11.27;;;;;;;-0.47;100.00;100048.13;4997087;28;20484;-95
2022/04/01 00:13:45;;;;;;;13.65;11.00;;;;;;;-0.55;100.00;100038.66;4981150;28;20109;-96
2022/04/01 00:16:10;;;;;;;12.23;10.57;;;;;;;-0.65;100.00;100047.56;4999006;28;20030;-95
2022/04/01 00:18:35;;;;;;;13.93;10.57;;;;;;;-0.66;100.00;100045.84;4999544;28;20082;-95
2022/04/01 00:21:00;;;;;;;12.32;9.75;;;;;;;-0.75;100.00;100043.41;4999629;28;20065;-94
2022/04/01 00:23:26;;;;;;;11.93;10.30;;;;;;;-0.69;100.00;100050.25;4986337;28;20034;-95
2022/04/01 00:25:51;;;;;;;11.07;9.27;;;;;;;-0.67;100.00;100051.06;5004419;28;20423;-95
2022/04/01 00:28:16;;;;;;;11.40;9.77;;;;;;;-0.78;100.00;100052.16;5003838;28;20038;-95
2022/04/01 00:30:42;;;;;;;11.75;9.15;;;;;;;-0.77;100.00;100060.84;5004305;28;20108;-95
2022/04/01 00:33:08;;;;;;;12.05;9.68;;;;;;;-0.80;100.00;100064.34;4998291;28;20069;-95
2022/04/01 00:35:34;;;;;;;11.05;8.88;;;;;;;-0.90;100.00;100059.31;5003077;28;20030;-96
2022/04/01 00:38:01;;;;;;;11.43;9.50;;;;;;;-0.89;100.00;100071.50;5002261;28;20038;-96
2022/04/01 00:40:26;;;;;;;11.82;9.20;;;;;;;-0.90;100.00;100075.00;5001624;28;20045;-94
2022/04/01 00:42:51;;;;;;;11.07;9.57;;;;;;;-1.03;100.00;100064.75;5004313;28;20038;-95
2022/04/01 00:45:16;;;;;;;11.93;9.65;;;;;;;-0.95;100.00;100085.53;4968678;28;20072;-95
2022/04/01 00:47:42;;;;;;;11.25;9.07;;;;;;;-0.94;100.00;100079.41;5000507;28;20026;-94
2022/04/01 00:50:08;;;;;;;9.65;8.45;;;;;;;-0.94;100.00;100084.63;4994242;28;20038;-95
2022/04/01 00:52:33;;;;;;;9.93;8.93;;;;;;;-1.02;100.00;100076.06;4988913;28;20214;-94
2022/04/01 00:55:00;;;;;;;9.95;8.25;;;;;;;-0.96;100.00;100086.44;4998534;28;20091;-94
2022/04/01 00:57:26;;;;;;;9.30;8.35;;;;;;;-1.02;100.00;100097.81;4998861;28;20062;-93
2022/04/01 00:59:54;;;;;;;9.25;8.20;;;;;;;-1.02;100.00;100091.72;4988745;28;20485;-94
2022/04/01 01:02:19;;;;;;;10.20;8.60;;;;;;;-1.02;100.00;100089.97;4996228;28;20061;-94
2022/04/01 01:04:45;;;;;;;9.05;8.05;;;;;;;-1.06;100.00;100074.38;4990583;28;20031;-93
2022/04/01 01:07:12;;;;;;;9.77;7.55;;;;;;;-0.94;100.00;100091.63;4967789;28;20023;-94
2022/04/01 01:09:37;;;;;;;9.98;8.02;;;;;;;-0.98;100.00;100088.19;4997595;28;20041;-95
2022/04/01 01:12:03;;;;;;;9.65;7.68;;;;;;;-0.98;100.00;100093.41;4992057;28;20031;-94
2022/04/01 01:14:31;;;;;;;9.02;7.97;;;;;;;-0.96;100.00;100090.75;4979643;28;20036;-95
2022/04/01 01:16:58;;;;;;;9.25;7.82;;;;;;;-1.00;100.00;100097.81;5000261;28;20234;-95
2022/04/01 01:19:24;;;;;;;11.13;7.18;;;;;;;-1.04;100.00;100076.09;4973080;28;20476;-94
2022/04/01 01:21:52;;;;;;;9.07;7.28;;;;;;;-1.02;100.00;100097.81;4980889;28;20038;-95
2022/04/01 01:24:23;;;;;;;8.50;7.38;;;;;;;-1.00;100.00;100095.19;4993158;28;20035;-95
2022/04/01 01:26:51;;;;;;;10.27;7.13;;;;;;;-1.08;100.00;100091.84;4998071;28;20027;-94
2022/04/01 01:29:30;;;;;;;9.10;7.45;;;;;;;-1.08;100.00;100092.69;4979971;28;20035;-94
2022/04/01 01:31:57;;;;;;;9.30;7.25;;;;;;;-1.06;100.00;100093.53;4987012;28;20102;-94
2022/04/01 01:34:23;;;;;;;10.30;6.82;;;;;;;-0.99;100.00;100096.06;4991226;28;20041;-94
2022/04/01 01:36:50;;;;;;;9.75;7.53;;;;;;;-1.02;100.00;100095.19;4998959;28;20038;-95
2022/04/01 01:39:16;;;;;;;11.55;7.85;;;;;;;-1.03;100.00;100092.63;4999582;28;20041;-93
2022/04/01 01:41:45;;;;;;;10.55;7.57;;;;;;;-1.08;100.00;100095.31;4991502;28;20031;-94
2022/04/01 01:44:12;;;;;;;9.30;7.45;;;;;;;-1.07;100.00;100093.56;4998621;28;20057;-94
2022/04/01 01:46:38;;;;;;;10.65;8.10;;;;;;;-1.13;100.00;100091.91;5006551;28;20053;-93
2022/04/01 01:49:04;;;;;;;10.02;7.78;;;;;;;-1.07;100.00;100104.88;4998135;28;20034;-92
2022/04/01 01:56:59;;;;;;;11.55;7.85;;;;;;;-1.18;100.00;100087.63;4997161;28;20090;-92
2022/04/01 01:59:24;;;;;;;9.32;6.85;;;;;;;-1.07;100.00;100104.88;4998039;28;20057;-93
2022/04/01 02:01:50;;;;;;;11.85;7.95;;;;;;;-1.13;100.00;100099.75;4992739;28;20033;-92
2022/04/01 02:04:15;;;;;;;8.23;7.35;;;;;;;-1.07;100.00;100110.09;4998933;28;20435;-94
2022/04/01 02:06:41;;;;;;;8.38;6.63;;;;;;;-1.14;100.00;100095.38;4980090;28;20026;-92
2022/04/01 02:09:06;;;;;;;9.07;7.43;;;;;;;-1.06;100.00;100113.56;4997664;28;20376;-91
2022/04/01 02:11:31;;;;;;;8.93;7.10;;;;;;;-1.12;100.00;100106.69;4988676;28;20039;-90
2022/04/01 02:13:57;;;;;;;8.98;7.28;;;;;;;-1.09;100.00;100105.75;4979124;28;20034;-92
2022/04/01 02:16:22;;;;;;;8.95;7.28;;;;;;;-1.10;100.00;100112.72;4997362;28;20460;-91
2022/04/01 02:18:49;;;;;;;8.32;7.40;;;;;;;-1.05;100.00;100120.50;4998659;28;20026;-91
2022/04/01 02:21:16;;;;;;;8.45;7.55;;;;;;;-1.05;100.00;100115.28;4997890;28;20065;-92
2022/04/01 02:23:44;;;;;;;8.07;7.05;;;;;;;-1.02;100.00;100123.06;4985565;28;20045;-92
2022/04/01 02:26:10;;;;;;;9.55;7.05;;;;;;;-1.04;100.00;100124.84;4999573;28;20027;-91
2022/04/01 02:28:37;;;;;;;9.57;6.97;;;;;;;-1.04;100.00;100124.84;4995949;28;20116;-90
2022/04/01 02:31:04;;;;;;;8.77;7.03;;;;;;;-1.04;100.00;100125.72;4996771;28;20030;-91
2022/04/01 02:33:30;;;;;;;8.40;7.57;;;;;;;-1.07;100.00;100132.72;4997965;28;20030;-91
2022/04/01 02:35:59;;;;;;;9.95;7.80;;;;;;;-1.07;100.00;100135.34;4997122;28;20034;-91
2022/04/01 02:38:29;;;;;;;9.38;7.13;;;;;;;-1.09;100.00;100140.56;4997975;28;20038;-93
2022/04/01 02:40:56;;;;;;;9.50;7.60;;;;;;;-1.08;100.00;100137.09;4996443;28;20113;-93
2022/04/01 02:43:22;;;;;;;10.32;7.80;;;;;;;-1.07;100.00;100144.03;4996696;28;20425;-93
2022/04/01 02:45:50;;;;;;;8.05;7.25;;;;;;;-1.07;100.00;100144.03;4995904;28;20041;-94
2022/04/01 02:48:17;;;;;;;8.10;7.25;;;;;;;-1.05;100.00;100146.63;4996051;28;20057;-94
2022/04/01 02:50:44;;;;;;;8.07;7.28;;;;;;;-1.06;100.00;100147.50;4996485;28;20022;-93
2022/04/01 02:53:10;;;;;;;8.13;7.32;;;;;;;-1.12;100.00;100143.25;4993083;28;20092;-93
2022/04/01 02:55:36;;;;;;;8.38;7.53;;;;;;;-1.08;100.00;100144.94;4988808;28;20058;-94
2022/04/01 02:58:01;;;;;;;9.18;7.45;;;;;;;-1.09;100.00;100148.41;4996065;28;20033;-93
2022/04/01 03:00:27;;;;;;;7.97;6.93;;;;;;;-0.97;100.00;100156.97;4994494;28;20025;-94
2022/04/01 03:02:53;;;;;;;8.15;6.90;;;;;;;-0.97;100.00;100151.72;4977101;28;20037;-93
2022/04/01 03:05:19;;;;;;;7.95;7.03;;;;;;;-0.97;100.00;100162.19;4980199;28;20507;-94
2022/04/01 03:07:44;;;;;;;9.25;7.38;;;;;;;-0.98;100.00;100163.06;4997119;28;20034;-94
2022/04/01 03:10:10;;;;;;;7.63;6.82;;;;;;;-0.99;100.00;100157.00;4995235;28;20045;-94
2022/04/01 03:12:35;;;;;;;7.65;6.85;;;;;;;-0.96;100.00;100163.91;4996762;28;20080;-92
2022/04/01 03:15:02;;;;;;;7.80;6.80;;;;;;;-0.96;100.00;100180.47;4980421;28;20120;-93
2022/04/01 03:17:28;;;;;;;8.15;7.35;;;;;;;-0.95;100.00;100169.13;4996289;28;20513;-93
2022/04/01 03:19:53;;;;;;;7.80;6.97;;;;;;;-0.92;100.00;100176.03;4977539;28;20057;-93
2022/04/01 03:22:20;;;;;;;8.32;7.43;;;;;;;-0.95;100.00;100186.53;4993789;28;20022;-92
2022/04/01 03:24:46;;;;;;;7.80;7.00;;;;;;;-0.99;100.00;100177.88;4992872;28;20018;-91
2022/04/01 03:27:12;;;;;;;8.40;7.43;;;;;;;-1.02;100.00;100172.69;4994441;28;20042;-90
2022/04/01 03:29:37;;;;;;;7.68;6.82;;;;;;;-0.96;100.00;100176.97;4995753;28;20165;-90
2022/04/01 03:32:03;;;;;;;8.05;7.18;;;;;;;-0.97;100.00;100183.06;4995709;28;20038;-91
2022/04/01 03:34:28;;;;;;;11.05;6.97;;;;;;;-0.96;100.00;100195.25;5005609;28;20026;-92
2022/04/01 03:36:54;;;;;;;7.90;7.10;;;;;;;-1.02;100.00;100191.84;4997386;28;20030;-90
2022/04/01 03:39:21;;;;;;;8.57;7.07;;;;;;;-0.99;100.00;100200.53;4993990;28;20041;-91
2022/04/01 03:41:48;;;;;;;9.93;7.50;;;;;;;-1.08;100.00;100189.34;4995685;28;20018;-91
2022/04/01 03:44:13;;;;;;;8.40;7.50;;;;;;;-1.08;100.00;100196.31;4994983;28;20476;-91
2022/04/01 03:46:47;;;;;;;7.68;6.88;;;;;;;-1.04;100.00;100193.63;4975077;28;20205;-90
2022/04/01 03:49:17;;;;;;;8.30;7.32;;;;;;;-1.07;100.00;100203.25;4984070;28;20167;-92
2022/04/01 03:51:44;;;;;;;10.02;7.93;;;;;;;-1.09;100.00;100195.41;4993952;28;20018;-91
2022/04/01 03:54:10;;;;;;;9.80;7.47;;;;;;;-1.12;100.00;100198.09;4992963;28;20315;-92
2022/04/01 03:56:37;;;;;;;9.77;7.63;;;;;;;-1.06;100.00;100210.19;4974733;28;20094;-91
2022/04/01 03:59:09;;;;;;;10.02;8.30;;;;;;;-1.07;100.00;100211.94;4977486;28;20042;-91
2022/04/01 04:01:36;;;;;;;9.43;8.02;;;;;;;-1.08;100.00;100210.22;4993883;28;20106;-91
2022/04/01 04:04:03;;;;;;;11.13;7.70;;;;;;;-1.17;100.00;100192.06;4950031;28;20442;-91
2022/04/01 04:06:28;;;;;;;10.20;8.02;;;;;;;-1.11;100.00;100209.41;4998914;28;20026;-92
2022/04/01 04:08:57;;;;;;;9.15;8.10;;;;;;;-1.10;100.00;100222.44;4992605;28;20031;-93
2022/04/01 04:11:25;;;;;;;9.82;8.82;;;;;;;-1.17;100.00;100207.75;4998521;28;20010;-92
2022/04/01 04:13:53;;;;;;;9.10;8.20;;;;;;;-1.15;100.00;100215.53;4998571;28;20023;-93
2022/04/01 04:16:24;;;;;;;9.75;8.75;;;;;;;-1.16;100.00;100232.97;4998048;28;20062;-92
2022/04/01 04:18:55;;;;;;;9.55;8.38;;;;;;;-1.20;100.00;100226.06;4998080;28;20061;-92
2022/04/01 04:21:26;;;;;;;10.48;9.13;;;;;;;-1.19;100.00;100239.97;4980717;28;20453;-91
2022/04/01 04:23:58;;;;;;;11.52;8.88;;;;;;;-1.24;100.00;100232.19;4998456;28;20038;-92
2022/04/01 04:26:35;;;;;;;12.35;9.07;;;;;;;-1.21;100.00;100234.78;5000830;28;20030;-92
2022/04/01 04:29:16;;;;;;;13.07;9.10;;;;;;;-1.18;100.00;100249.53;5002584;28;20069;-93
2022/04/01 04:32:06;;;;;;;12.65;9.75;;;;;;;-1.20;100.00;100246.94;4980572;28;20101;-93
2022/04/01 04:34:36;;;;;;;10.93;9.20;;;;;;;-1.27;100.00;100242.66;4998007;28;20045;-92
2022/04/01 04:37:03;;;;;;;11.60;9.55;;;;;;;-1.20;100.00;100262.59;4964582;28;20488;-93
2022/04/01 04:39:34;;;;;;;11.00;9.27;;;;;;;-1.18;100.00;100262.56;4983193;28;20039;-93
2022/04/01 04:42:01;;;;;;;13.63;9.90;;;;;;;-1.18;100.00;100262.56;4982880;28;20407;-93
2022/04/01 04:44:29;;;;;;;10.90;9.07;;;;;;;-1.18;100.00;100281.72;4971221;28;20022;-93
2022/04/01 04:46:59;;;;;;;13.55;9.80;;;;;;;-1.16;100.00;100276.50;4999598;28;20082;-93
2022/04/01 04:49:29;;;;;;;10.85;9.55;;;;;;;-1.16;100.00;100285.19;4977502;28;20031;-92
2022/04/01 04:51:56;;;;;;;11.30;9.15;;;;;;;-1.17;100.00;100280.88;4979041;28;20092;-92
2022/04/01 04:54:24;;;;;;;12.60;9.85;;;;;;;-1.26;100.00;100278.34;4998457;28;20022;-92
2022/04/01 04:56:49;;;;;;;9.95;8.50;;;;;;;-1.21;100.00;100287.00;4980884;28;20038;-92
2022/04/01 04:59:18;;;;;;;9.82;8.60;;;;;;;-1.19;100.00;100290.44;4979127;28;20019;-94
2022/04/01 05:01:48;;;;;;;9.80;8.45;;;;;;;-1.21;100.00;100292.22;4997508;28;20484;-91
2022/04/01 05:04:22;;;;;;;10.50;8.73;;;;;;;-1.15;100.00;100314.78;4997946;28;20041;-92
2022/04/01 05:07:09;;;;;;;11.38;8.10;;;;;;;-1.21;100.00;100299.16;4980377;28;20094;-92
2022/04/01 05:09:42;;;;;;;10.85;8.15;;;;;;;-1.18;100.00;100314.81;4996606;28;20034;-93
2022/04/01 05:12:23;;;;;;;9.82;8.57;;;;;;;-1.21;100.00;100307.91;4968733;28;20033;-92
2022/04/01 05:15:01;;;;;;;9.70;8.10;;;;;;;-1.16;100.00;100328.72;4970343;28;20070;-93
2022/04/01 05:17:35;;;;;;;9.70;7.80;;;;;;;-1.20;100.00;100322.66;4997865;28;20117;-92
2022/04/01 05:20:02;;;;;;;11.93;9.07;;;;;;;-1.19;100.00;100331.38;4986211;28;20094;-91
2022/04/01 05:22:47;;;;;;;14.50;10.13;;;;;;;-1.17;100.00;100345.25;4971957;28;20037;-92
2022/04/01 05:25:17;;;;;;;10.68;9.05;;;;;;;-1.23;100.00;100340.13;4999727;28;20026;-91
2022/04/01 05:27:48;;;;;;;10.52;8.98;;;;;;;-1.18;100.00;100338.31;4982157;28;20494;-92
2022/04/01 05:30:16;;;;;;;13.20;9.48;;;;;;;-1.25;100.00;100340.13;4966014;28;20030;-91
2022/04/01 05:33:16;;;;;;;11.23;9.32;;;;;;;-1.19;100.00;100358.34;4992962;28;20056;-93
2022/04/01 05:35:44;;;;;;;11.52;9.05;;;;;;;-1.23;100.00;100361.88;4972586;28;20023;-92
2022/04/01 05:38:09;;;;;;;13.57;9.75;;;;;;;-1.23;100.00;100353.16;4977444;28;20034;-92
2022/04/01 05:40:36;;;;;;;13.20;10.13;;;;;;;-1.19;100.00;100371.41;4969226;28;20029;-93
2022/04/01 05:43:03;;;;;;;13.30;10.50;;;;;;;-1.20;100.00;100364.44;4989170;28;20081;-92
2022/04/01 05:45:29;;;;;;;14.90;10.48;;;;;;;-1.23;100.00;100368.84;4983080;28;20102;-93
2022/04/01 05:47:56;;;;;;;12.15;9.90;;;;;;;-1.19;100.00;100381.84;4983574;28;20301;-93
2022/04/01 05:50:22;;;;;;;12.90;10.25;;;;;;;-1.20;100.00;100387.09;5000842;28;20026;-88
2022/04/01 05:52:49;;;;;;;11.38;9.50;;;;;;;-1.19;100.00;100381.84;5000159;28;20044;-90
2022/04/01 05:55:16;;;;;;;12.20;10.32;;;;;;;-1.20;100.00;100387.94;4993688;28;20049;-90
2022/04/01 05:57:41;;;;;;;11.80;9.57;;;;;;;-1.28;100.00;100384.56;4979534;28;20035;-91
2022/04/01 06:00:12;;;;;;;11.77;9.88;;;;;;;-1.30;100.00;100379.31;4980559;28;20117;-93
2022/04/01 06:03:24;;;;;;;13.70;10.00;;;;;;;-1.27;100.00;100400.19;4982404;28;20042;-91
2022/04/01 06:06:02;;;;;;;11.73;9.30;;;;;;;-1.20;99.91;100411.47;4958166;28;20073;-91
2022/04/01 06:08:49;;;;;;;12.07;9.40;;;;;;;-1.23;99.64;100419.31;4997419;28;20102;-89
2022/04/01 06:11:25;;;;;;;13.23;9.35;;;;;;;-1.22;100.00;100425.41;4996497;28;20031;-93
2022/04/01 06:14:17;;;;;;;11.85;9.68;;;;;;;-1.25;99.96;100426.31;4998587;28;20025;-93
2022/04/01 06:17:00;;;;;;;11.68;9.27;;;;;;;-1.21;99.97;100433.22;4996369;28;20126;-93
2022/04/01 06:19:40;;;;;;;12.75;9.68;;;;;;;-1.21;99.44;100441.06;4997908;28;20104;-93
2022/04/01 06:22:16;;;;;;;11.13;9.38;;;;;;;-1.20;99.78;100441.94;4988587;28;20090;-94
2022/04/01 06:25:12;;;;;;;12.00;9.15;;;;;;;-1.25;99.63;100449.81;4987435;28;20029;-93
2022/04/01 06:27:42;;;;;;;12.32;8.90;;;;;;;-1.21;99.33;100450.63;4981674;28;20032;-92
2022/04/01 06:30:09;;;;;;;11.65;9.30;;;;;;;-1.23;99.05;100452.41;4998534;28;20058;-93
2022/04/01 06:33:18;;;;;;;11.73;9.10;;;;;;;-1.24;99.20;100459.38;4976833;28;20048;-93
2022/04/01 06:35:56;;;;;;;11.02;8.98;;;;;;;-1.24;99.31;100464.59;4977815;28;20108;-92
2022/04/01 06:38:48;;;;;;;11.75;8.93;;;;;;;-1.24;99.89;100464.59;4996535;28;20041;-93
2022/04/01 06:41:21;;;;;;;10.98;9.25;;;;;;;-1.18;99.46;100474.09;4992379;28;20030;-90
2022/04/01 06:43:48;;;;;;;11.63;9.60;;;;;;;-1.19;98.76;100475.84;4995539;28;20097;-91
2022/04/01 06:46:13;;;;;;;10.35;8.68;;;;;;;-1.20;98.61;100483.72;4993917;28;20025;-93
2022/04/01 06:48:40;;;;;;;10.05;8.65;;;;;;;-1.23;98.95;100481.97;4996825;28;20082;-91
2022/04/01 06:51:08;;;;;;;11.50;8.88;;;;;;;-1.22;98.60;100490.69;4992168;28;20023;-93
2022/04/01 06:53:36;;;;;;;10.55;8.32;;;;;;;-1.23;98.14;100495.03;4973150;28;20068;-91
2022/04/01 06:56:03;;;;;;;13.75;8.93;;;;;;;-1.28;97.74;100491.59;4995097;28;20042;-89
2022/04/01 06:58:30;;;;;;;10.60;8.40;;;;;;;-1.26;97.84;100514.19;4996565;28;20042;-92
2022/04/01 07:00:55;;;;;;;10.10;7.88;;;;;;;-1.30;97.30;100496.81;5000063;28;20015;-89
2022/04/01 07:03:21;;;;;;;10.43;7.85;;;;;;;-1.28;97.33;100509.88;4995939;28;20037;-90
2022/04/01 07:05:47;;;;;;;10.95;7.72;;;;;;;-1.24;97.63;100508.97;4981613;28;20038;-89
2022/04/01 07:08:15;;;;;;;10.50;7.93;;;;;;;-1.31;97.90;100502.94;5007659;28;20030;-89
2022/04/01 07:10:41;;;;;;;8.73;7.75;;;;;;;-1.20;97.54;100515.06;4988633;28;20026;-91
2022/04/01 07:13:06;;;;;;;10.52;7.93;;;;;;;-1.29;97.25;100498.56;4994588;28;20057;-90
2022/04/01 07:15:31;;;;;;;11.20;8.02;;;;;;;-1.20;96.82;100517.66;4978240;28;20026;-91
2022/04/01 07:17:56;;;;;;;9.70;7.15;;;;;;;-1.19;96.38;100517.63;4994945;28;20030;-90
2022/04/01 07:20:22;;;;;;;8.32;6.50;;;;;;;-1.22;95.54;100501.97;4987241;28;20034;-91
2022/04/01 07:22:47;;;;;;;9.80;6.15;;;;;;;-1.04;94.79;100532.31;4995009;28;20392;-90
2022/04/01 07:25:13;;;;;;;9.27;6.72;;;;;;;-1.14;95.50;100521.06;4986353;28;20499;-90
2022/04/01 07:27:38;;;;;;;8.25;6.63;;;;;;;-1.09;96.01;100534.94;4994197;28;20057;-89
2022/04/01 07:30:08;;;;;;;9.70;6.38;;;;;;;-1.06;95.48;100544.53;4989405;28;20060;-90
2022/04/01 07:32:33;;;;;;;10.60;7.07;;;;;;;-1.05;95.28;100541.88;4982083;28;20038;-91
2022/04/01 07:35:00;;;;;;;11.48;6.60;;;;;;;-1.05;95.07;100544.50;4998188;28;20085;-89
2022/04/01 07:37:27;;;;;;;8.48;6.82;;;;;;;-1.07;94.33;100548.88;5000086;28;20034;-92
2022/04/01 07:39:53;;;;;;;8.57;6.22;;;;;;;-1.06;94.74;100553.22;4967896;28;20058;-91
2022/04/01 07:42:20;;;;;;;8.35;6.50;;;;;;;-1.08;94.21;100541.06;4996133;28;20028;-93
2022/04/01 07:44:46;;;;;;;9.50;6.72;;;;;;;-1.05;94.34;100556.69;4968313;28;20124;-92
2022/04/01 07:47:14;;;;;;;9.65;6.20;;;;;;;-1.23;94.51;100538.56;4994960;28;20105;-89
2022/04/01 07:49:40;;;;;;;8.55;6.22;;;;;;;-1.02;94.12;100573.22;4993562;28;20035;-88
2022/04/01 07:52:09;;;;;;;9.63;6.28;;;;;;;-1.03;94.21;100571.50;4977934;28;20038;-87
2022/04/01 07:54:36;;;;;;;8.70;6.18;;;;;;;-1.07;93.57;100580.22;4988820;28;20023;-88
2022/04/01 07:57:03;;;;;;;7.07;6.28;;;;;;;-1.01;94.67;100589.75;4974334;28;20089;-88
2022/04/01 07:59:29;;;;;;;8.98;6.00;;;;;;;-1.01;93.75;100585.38;4994182;28;20108;-88
2022/04/01 08:01:54;;;;;;;7.93;5.55;;;;;;;-0.98;93.44;100596.72;4993951;28;20105;-94
2022/04/01 08:04:19;;;;;;;9.20;6.15;;;;;;;-1.10;92.96;100563.72;4977659;28;20038;-91
2022/04/01 08:06:45;;;;;;;9.82;6.30;;;;;;;-1.04;93.55;100577.59;4997721;28;20104;-92
2022/04/01 08:09:10;;;;;;;8.60;5.85;;;;;;;-0.92;93.33;100596.66;4999659;28;20042;-91
2022/04/01 08:11:36;;;;;;;7.53;5.45;;;;;;;-0.89;93.85;100599.25;5002529;28;20040;-92
2022/04/01 08:14:02;;;;;;;6.18;5.53;;;;;;;-0.84;93.06;100603.53;5004803;28;20026;-93
2022/04/01 08:16:27;;;;;;;8.32;5.75;;;;;;;-0.84;93.25;100602.69;4999085;28;20053;-91
2022/04/01 08:18:53;;;;;;;6.50;5.53;;;;;;;-0.81;93.08;100615.72;4996375;28;20038;-94
2022/04/01 08:21:18;;;;;;;7.00;6.18;;;;;;;-0.84;92.87;100611.38;5001018;28;20033;-95
2022/04/01 08:23:44;;;;;;;8.73;5.30;;;;;;;-0.74;92.92;100612.19;4987526;28;20054;-94
2022/04/01 08:26:11;;;;;;;6.53;4.93;;;;;;;-0.74;92.29;100620.03;4978611;28;20030;-94
2022/04/01 08:28:37;;;;;;;7.47;5.82;;;;;;;-0.80;92.29;100610.47;4997897;28;20018;-93
2022/04/01 08:31:03;;;;;;;6.93;5.15;;;;;;;-0.79;92.18;100627.06;5001411;28;20026;-93
2022/04/01 08:33:30;;;;;;;6.07;5.38;;;;;;;-0.75;92.72;100626.16;5000830;28;20061;-92
2022/04/01 08:35:56;;;;;;;10.68;5.72;;;;;;;-0.74;92.12;100627.88;5006608;28;20037;-96
2022/04/01 08:38:21;;;;;;;6.25;4.57;;;;;;;-0.78;92.63;100628.78;5012908;28;20038;-96
2022/04/01 08:40:47;;;;;;;8.02;4.97;;;;;;;-0.75;92.04;100641.81;4976100;28;20066;-95
2022/04/01 08:43:12;;;;;;;11.63;5.00;;;;;;;-0.70;92.29;100640.03;4996315;28;20018;-95
2022/04/01 08:45:38;;;;;;;7.45;5.72;;;;;;;-0.71;92.28;100651.38;4998221;28;20052;-90
2022/04/01 08:48:05;;;;;;;6.35;5.43;;;;;;;-0.72;91.63;100640.91;5006919;28;20029;-92
2022/04/01 08:50:32;;;;;;;5.70;4.75;;;;;;;-0.68;91.33;100655.69;4997323;28;20030;-88
2022/04/01 08:52:57;;;;;;;7.53;5.43;;;;;;;-0.68;91.63;100663.53;4997163;28;20033;-88
2022/04/01 08:55:23;;;;;;;7.00;4.68;;;;;;;-0.70;91.83;100671.41;4993084;28;20030;-91
2022/04/01 08:57:48;;;;;;;7.75;4.80;;;;;;;-0.72;91.11;100661.81;4998166;28;20030;-90
2022/04/01 09:00:14;;;;;;;6.50;4.97;;;;;;;-0.64;91.06;100675.72;4999281;28;20154;-88
2022/04/01 09:02:44;;;;;;;5.00;4.32;;;;;;;-0.61;90.57;100679.16;4999074;28;20042;-89
2022/04/01 09:05:10;;;;;;;6.07;4.90;;;;;;;-0.60;91.16;100687.88;4988798;28;20341;-87
2022/04/01 09:07:36;;;;;;;5.15;4.40;;;;;;;-0.54;90.28;100688.72;4996338;28;20038;-90
2022/04/01 09:10:07;;;;;;;6.32;4.65;;;;;;;-0.54;90.14;100680.88;4997307;28;20592;-88
2022/04/01 09:12:33;;;;;;;5.40;4.10;;;;;;;-0.49;89.87;100688.66;4995326;28;20503;-88
2022/04/01 09:14:59;;;;;;;5.70;3.88;;;;;;;-0.47;89.02;100702.56;4993109;28;20022;-89
2022/04/01 09:17:42;;;;;;;6.97;4.07;;;;;;;-0.42;89.06;100708.63;4996601;28;20030;-88
2022/04/01 09:20:08;;;;;;;4.40;4.00;;;;;;;-0.42;88.51;100695.56;4995476;28;20031;-89
2022/04/01 09:22:34;;;;;;;5.35;3.53;;;;;;;-0.40;88.44;100692.94;4991473;28;20069;-89
2022/04/01 09:25:04;;;;;;;4.28;3.85;;;;;;;-0.33;88.54;100707.72;4995950;28;20285;-89
2022/04/01 09:27:47;;;;;;;7.25;4.03;;;;;;;-0.31;88.07;100698.09;4995820;28;20041;-90
2022/04/01 09:30:18;;;;;;;6.50;4.10;;;;;;;-0.18;88.43;100711.94;4996553;28;20500;-90
2022/04/01 09:32:49;;;;;;;5.15;3.63;;;;;;;-0.12;86.95;100709.28;4991556;28;20091;-88
2022/04/01 09:35:15;;;;;;;5.43;3.75;;;;;;;-0.05;87.56;100710.94;4995370;28;20026;-88
2022/04/01 09:37:44;;;;;;;5.55;3.47;;;;;;;0.02;86.54;100716.97;4980839;28;20058;-88
2022/04/01 09:40:13;;;;;;;4.03;3.30;;;;;;;0.01;85.84;100715.25;4987779;28;20018;-88
2022/04/01 09:42:39;;;;;;;10.68;3.75;;;;;;;0.01;86.00;100721.34;4993747;28;20164;-87
2022/04/01 09:45:05;;;;;;;5.15;3.90;;;;;;;0.08;86.29;100730.00;4995507;28;20054;-88
2022/04/01 09:47:36;;;;;;;5.35;3.25;;;;;;;0.09;86.02;100721.28;4978168;28;20019;-88
2022/04/01 09:50:09;;;;;;;5.07;3.35;;;;;;;0.16;85.47;100725.56;4978886;28;20120;-87
2022/04/01 09:52:36;;;;;;;5.97;3.50;;;;;;;0.17;85.54;100725.56;4998014;28;20045;-88
2022/04/01 09:55:02;;;;;;;4.57;3.28;;;;;;;0.20;84.82;100733.34;4997897;28;20030;-88
2022/04/01 09:57:28;;;;;;;7.50;3.45;;;;;;;0.15;83.89;100713.34;4997502;28;20034;-88
2022/04/01 09:59:54;;;;;;;4.68;3.30;;;;;;;0.22;84.67;100728.13;4996319;28;20038;-87
